createdAt,value
2018-12-22T00:00:15.629Z,15.4
2018-12-22T00:01:15.692Z,48.3
2018-12-22T00:02:15.630Z,27.3
2018-12-22T00:03:15.632Z,72.4
2018-12-22T00:04:15.604Z,42.3
2018-12-22T00:05:15.566Z,39.3
2018-12-22T00:06:15.639Z,54.3
2018-12-22T00:07:15.671Z,18.3
2018-12-22T00:08:15.692Z,30.3
2018-12-22T00:09:15.605Z,99.5
2018-12-22T00:10:15.570Z,54.3
2018-12-22T00:11:15.609Z,30.3
2018-12-22T00:12:15.636Z,42.3
2018-12-22T00:13:15.712Z,48.3
2018-12-22T00:14:15.621Z,33.3
2018-12-22T00:15:15.801Z,21.3
2018-12-22T00:16:15.668Z,60.3
2018-12-22T00:17:15.650Z,87.4
2018-12-22T00:18:15.687Z,51.3
2018-12-22T00:19:15.612Z,42.3
2018-12-22T00:20:15.605Z,75.4
2018-12-22T00:21:15.580Z,24.3
2018-12-22T00:22:15.631Z,36.3
2018-12-22T00:23:15.703Z,54.3
2018-12-22T00:24:15.633Z,24.3
2018-12-22T00:25:15.636Z,54.3
2018-12-22T00:26:15.595Z,54.3
2018-12-22T00:27:15.710Z,18.3
2018-12-22T00:28:23.311Z,60.3
2018-12-22T00:29:15.616Z,12.4
2018-12-22T00:30:17.597Z,39.3
2018-12-22T00:31:15.699Z,39.3
2018-12-22T00:32:15.653Z,48.3
2018-12-22T00:33:16.933Z,42.3
2018-12-22T00:34:15.632Z,39.3
2018-12-22T00:35:15.621Z,39.3
2018-12-22T00:36:15.703Z,12.4
2018-12-22T00:37:15.650Z,27.3
2018-12-22T00:38:15.634Z,18.3
2018-12-22T00:39:15.695Z,9.5
2018-12-22T00:40:15.604Z,24.3
2018-12-22T00:41:15.625Z,12.4
2018-12-22T00:42:15.676Z,54.3
2018-12-22T00:43:15.699Z,30.3
2018-12-22T00:44:15.581Z,48.3
2018-12-22T00:45:15.666Z,27.3
2018-12-22T00:46:15.733Z,42.3
2018-12-22T00:47:15.609Z,48.3
2018-12-22T00:48:15.551Z,30.3
2018-12-22T00:49:15.622Z,24.3
2018-12-22T00:50:15.681Z,36.3
2018-12-22T00:51:15.626Z,27.3
2018-12-22T00:52:15.635Z,30.3
2018-12-22T00:53:15.778Z,39.3
2018-12-22T00:54:15.567Z,15.4
2018-12-22T00:55:15.696Z,18.3
2018-12-22T00:56:15.639Z,30.3
2018-12-22T00:57:15.649Z,42.3
2018-12-22T00:58:15.610Z,36.3
2018-12-22T00:59:15.651Z,39.3
2018-12-22T01:00:16.185Z,60.3
2018-12-22T01:01:15.670Z,12.4
2018-12-22T01:02:15.642Z,33.3
2018-12-22T01:03:15.681Z,48.3
2018-12-22T01:04:15.593Z,27.3
2018-12-22T01:05:15.600Z,33.3
2018-12-22T01:06:15.689Z,18.3
2018-12-22T01:07:15.595Z,27.3
2018-12-22T01:08:15.610Z,54.3
2018-12-22T01:09:15.618Z,18.3
2018-12-22T01:10:15.561Z,33.3
2018-12-22T01:11:15.687Z,30.3
2018-12-22T01:12:15.668Z,33.3
2018-12-22T01:13:15.614Z,9.5
2018-12-22T01:14:15.635Z,30.3
2018-12-22T01:15:15.572Z,21.3
2018-12-22T01:16:15.650Z,33.3
2018-12-22T01:17:15.609Z,30.3
2018-12-22T01:18:15.601Z,12.4
2018-12-22T01:19:15.622Z,21.3
2018-12-22T01:20:15.627Z,45.3
2018-12-22T01:21:15.632Z,54.3
2018-12-22T01:22:15.678Z,27.3
2018-12-22T01:23:15.633Z,30.3
2018-12-22T01:24:15.658Z,21.3
2018-12-22T01:25:15.675Z,39.3
2018-12-22T01:26:15.581Z,36.3
2018-12-22T01:27:15.659Z,33.3
2018-12-22T01:28:15.671Z,24.3
2018-12-22T01:29:15.701Z,24.3
2018-12-22T01:30:15.616Z,18.3
2018-12-22T01:31:15.625Z,60.3
2018-12-22T01:32:15.623Z,84.4
2018-12-22T01:33:15.828Z,21.3
2018-12-22T01:34:15.611Z,12.4
2018-12-22T01:35:15.605Z,15.4
2018-12-22T01:36:15.621Z,30.3
2018-12-22T01:37:15.616Z,27.3
2018-12-22T01:38:15.709Z,57.3
2018-12-22T01:39:15.709Z,30.3
2018-12-22T01:40:15.586Z,33.3
2018-12-22T01:41:15.626Z,30.3
2018-12-22T01:42:15.798Z,18.3
2018-12-22T01:43:15.572Z,24.3
2018-12-22T01:44:15.670Z,18.3
2018-12-22T01:45:15.609Z,42.3
2018-12-22T01:46:15.609Z,15.4
2018-12-22T01:47:15.763Z,42.3
2018-12-22T01:48:15.560Z,36.3
2018-12-22T01:49:15.667Z,42.3
2018-12-22T01:50:15.580Z,27.3
2018-12-22T01:51:15.624Z,54.3
2018-12-22T01:52:15.638Z,27.3
2018-12-22T01:53:15.617Z,6.6
2018-12-22T01:54:15.570Z,42.3
2018-12-22T01:55:15.580Z,45.3
2018-12-22T01:56:15.704Z,18.3
2018-12-22T01:57:15.701Z,48.3
2018-12-22T01:58:15.599Z,45.3
2018-12-22T01:59:15.542Z,42.3
2018-12-22T02:00:15.598Z,42.3
2018-12-22T02:01:15.592Z,54.3
2018-12-22T02:02:15.680Z,45.3
2018-12-22T02:03:15.572Z,57.3
2018-12-22T02:04:15.672Z,36.3
2018-12-22T02:05:15.554Z,30.3
2018-12-22T02:06:15.586Z,57.3
2018-12-22T02:07:15.598Z,42.3
2018-12-22T02:08:15.658Z,48.3
2018-12-22T02:09:15.595Z,30.3
2018-12-22T02:10:15.546Z,48.3
2018-12-22T02:11:15.637Z,36.3
2018-12-22T02:12:15.597Z,21.3
2018-12-22T02:13:15.600Z,30.3
2018-12-22T02:14:15.590Z,27.3
2018-12-22T02:15:15.536Z,18.3
2018-12-22T02:16:15.743Z,33.3
2018-12-22T02:17:15.612Z,24.3
2018-12-22T02:18:15.621Z,45.3
2018-12-22T02:19:15.588Z,21.3
2018-12-22T02:20:15.607Z,45.3
2018-12-22T02:21:15.663Z,45.3
2018-12-22T02:22:15.619Z,24.3
2018-12-22T02:23:18.535Z,18.3
2018-12-22T02:24:15.600Z,30.3
2018-12-22T02:25:15.742Z,12.4
2018-12-22T02:26:15.606Z,33.3
2018-12-22T02:27:15.559Z,33.3
2018-12-22T02:28:15.654Z,36.3
2018-12-22T02:29:15.586Z,9.5
2018-12-22T02:30:15.592Z,18.3
2018-12-22T02:31:15.588Z,36.3
2018-12-22T02:32:18.198Z,15.4
2018-12-22T02:33:15.615Z,36.3
2018-12-22T02:34:15.609Z,12.4
2018-12-22T02:35:15.668Z,18.3
2018-12-22T02:36:15.582Z,24.3
2018-12-22T02:37:15.538Z,42.3
2018-12-22T02:38:15.598Z,9.5
2018-12-22T02:39:15.574Z,18.3
2018-12-22T02:40:15.804Z,45.3
2018-12-22T02:41:15.602Z,27.3
2018-12-22T02:42:15.547Z,12.4
2018-12-22T02:43:15.626Z,48.3
2018-12-22T02:44:15.689Z,12.4
2018-12-22T02:45:15.594Z,9.5
2018-12-22T02:46:15.665Z,48.3
2018-12-22T02:47:15.575Z,51.3
2018-12-22T02:48:15.532Z,24.3
2018-12-22T02:49:15.577Z,21.3
2018-12-22T02:50:15.675Z,36.3
2018-12-22T02:51:15.607Z,39.3
2018-12-22T02:52:15.659Z,27.3
2018-12-22T02:53:15.620Z,12.4
2018-12-22T02:54:15.607Z,9.5
2018-12-22T02:55:15.589Z,36.3
2018-12-22T02:56:15.579Z,9.5
2018-12-22T02:57:15.663Z,33.3
2018-12-22T02:58:15.598Z,6.6
2018-12-22T02:59:15.541Z,27.3
2018-12-22T03:00:17.681Z,15.4
2018-12-22T03:01:15.598Z,36.3
2018-12-22T03:02:15.629Z,21.3
2018-12-22T03:03:15.645Z,12.4
2018-12-22T03:04:15.560Z,27.3
2018-12-22T03:05:15.520Z,18.3
2018-12-22T03:06:15.599Z,9.5
2018-12-22T03:07:15.560Z,27.3
2018-12-22T03:08:15.652Z,30.3
2018-12-22T03:09:15.566Z,15.4
2018-12-22T03:10:15.568Z,15.4
2018-12-22T03:11:15.566Z,12.4
2018-12-22T03:12:15.619Z,18.3
2018-12-22T03:13:15.549Z,12.4
2018-12-22T03:14:15.581Z,21.3
2018-12-22T03:15:15.620Z,27.3
2018-12-22T03:16:15.586Z,36.3
2018-12-22T03:17:15.581Z,12.4
2018-12-22T03:18:15.595Z,27.3
2018-12-22T03:19:15.564Z,33.3
2018-12-22T03:20:15.679Z,21.3
2018-12-22T03:21:15.533Z,18.3
2018-12-22T03:22:15.569Z,12.4
2018-12-22T03:23:15.630Z,9.5
2018-12-22T03:24:15.600Z,9.5
2018-12-22T03:25:15.573Z,36.3
2018-12-22T03:26:15.532Z,27.3
2018-12-22T03:27:15.646Z,18.3
2018-12-22T03:28:15.574Z,24.3
2018-12-22T03:29:18.324Z,9.5
2018-12-22T03:30:15.656Z,27.3
2018-12-22T03:31:15.570Z,39.3
2018-12-22T03:32:15.553Z,24.3
2018-12-22T03:33:15.582Z,18.3
2018-12-22T03:34:15.633Z,24.3
2018-12-22T03:35:15.569Z,18.3
2018-12-22T03:36:15.565Z,27.3
2018-12-22T03:37:15.634Z,36.3
2018-12-22T03:38:15.633Z,42.3
2018-12-22T03:39:15.569Z,39.3
2018-12-22T03:40:15.572Z,45.3
2018-12-22T03:41:15.574Z,30.3
2018-12-22T03:42:15.586Z,18.3
2018-12-22T03:43:15.516Z,24.3
2018-12-22T03:44:15.574Z,18.3
2018-12-22T03:45:15.543Z,42.3
2018-12-22T03:46:15.573Z,36.3
2018-12-22T03:47:15.654Z,36.3
2018-12-22T03:48:15.541Z,15.4
2018-12-22T03:49:15.567Z,45.3
2018-12-22T03:50:15.654Z,48.3
2018-12-22T03:51:15.551Z,21.3
2018-12-22T03:52:15.670Z,30.3
2018-12-22T03:53:15.527Z,15.4
2018-12-22T03:54:15.520Z,27.3
2018-12-22T03:55:15.588Z,27.3
2018-12-22T03:56:15.555Z,36.3
2018-12-22T03:57:15.644Z,42.3
2018-12-22T03:58:15.581Z,12.4
2018-12-22T03:59:24.441Z,60.3
2018-12-22T04:00:15.806Z,24.3
2018-12-22T04:01:15.562Z,39.3
2018-12-22T04:02:15.542Z,24.3
2018-12-22T04:03:15.680Z,12.4
2018-12-22T04:04:15.526Z,15.4
2018-12-22T04:05:15.507Z,27.3
2018-12-22T04:06:15.569Z,39.3
2018-12-22T04:07:15.562Z,18.3
2018-12-22T04:08:15.651Z,51.3
2018-12-22T04:09:15.653Z,57.3
2018-12-22T04:10:15.509Z,39.3
2018-12-22T04:11:15.542Z,42.3
2018-12-22T04:12:15.571Z,54.3
2018-12-22T04:13:15.553Z,15.4
2018-12-22T04:14:15.659Z,15.4
2018-12-22T04:15:15.564Z,33.3
2018-12-22T04:16:15.538Z,36.3
2018-12-22T04:17:15.542Z,18.3
2018-12-22T04:18:15.573Z,3.9
2018-12-22T04:19:15.616Z,21.3
2018-12-22T04:20:15.566Z,21.3
2018-12-22T04:21:15.501Z,15.4
2018-12-22T04:22:15.577Z,33.3
2018-12-22T04:23:15.555Z,15.4
2018-12-22T04:24:15.646Z,24.3
2018-12-22T04:25:15.551Z,33.3
2018-12-22T04:26:15.570Z,12.4
2018-12-22T04:27:15.581Z,9.5
2018-12-22T04:28:15.581Z,12.4
2018-12-22T04:29:15.603Z,60.3
2018-12-22T04:30:15.561Z,21.3
2018-12-22T04:31:15.553Z,18.3
2018-12-22T04:32:15.594Z,9.5
2018-12-22T04:33:15.540Z,15.4
2018-12-22T04:34:15.801Z,6.6
2018-12-22T04:35:15.541Z,18.3
2018-12-22T04:36:15.561Z,21.3
2018-12-22T04:37:15.492Z,18.3
2018-12-22T04:38:15.534Z,30.3
2018-12-22T04:39:15.633Z,18.3
2018-12-22T04:40:15.625Z,27.3
2018-12-22T04:41:15.680Z,15.4
2018-12-22T04:42:15.546Z,18.3
2018-12-22T04:43:15.509Z,12.4
2018-12-22T04:44:15.545Z,15.4
2018-12-22T04:45:15.600Z,18.3
2018-12-22T04:46:15.629Z,12.4
2018-12-22T04:47:15.537Z,9.5
2018-12-22T04:48:15.483Z,24.3
2018-12-22T04:49:15.579Z,24.3
2018-12-22T04:50:15.543Z,27.3
2018-12-22T04:51:15.654Z,24.3
2018-12-22T04:52:15.532Z,21.3
2018-12-22T04:53:15.548Z,30.3
2018-12-22T04:54:15.499Z,12.4
2018-12-22T04:55:15.540Z,48.3
2018-12-22T04:56:15.608Z,30.3
2018-12-22T04:57:15.526Z,33.3
2018-12-22T04:58:15.564Z,12.4
2018-12-22T04:59:15.470Z,24.3
2018-12-22T05:00:15.625Z,57.3
2018-12-22T05:01:15.644Z,45.3
2018-12-22T05:02:15.550Z,18.3
2018-12-22T05:03:15.531Z,39.3
2018-12-22T05:04:15.504Z,42.3
2018-12-22T05:05:15.538Z,15.4
2018-12-22T05:06:15.589Z,9.5
2018-12-22T05:07:15.595Z,27.3
2018-12-22T05:08:15.540Z,24.3
2018-12-22T05:09:15.733Z,27.3
2018-12-22T05:10:15.471Z,18.3
2018-12-22T05:11:15.626Z,12.4
2018-12-22T05:12:15.534Z,12.4
2018-12-22T05:13:15.557Z,18.3
2018-12-22T05:14:15.555Z,6.6
2018-12-22T05:15:15.524Z,24.3
2018-12-22T05:16:15.585Z,30.3
2018-12-22T05:17:15.545Z,18.3
2018-12-22T05:18:15.613Z,9.5
2018-12-22T05:19:15.674Z,21.3
2018-12-22T05:20:17.833Z,27.3
2018-12-22T05:21:15.471Z,21.3
2018-12-22T05:22:15.526Z,30.3
2018-12-22T05:23:15.627Z,6.6
2018-12-22T05:24:15.546Z,15.4
2018-12-22T05:25:15.612Z,6.6
2018-12-22T05:26:15.487Z,15.4
2018-12-22T05:27:15.576Z,9.5
2018-12-22T05:28:15.511Z,21.3
2018-12-22T05:29:15.506Z,15.4
2018-12-22T05:30:15.599Z,18.3
2018-12-22T05:31:15.481Z,18.3
2018-12-22T05:32:15.497Z,6.6
2018-12-22T05:33:15.533Z,15.4
2018-12-22T05:34:15.528Z,18.3
2018-12-22T05:35:15.595Z,12.4
2018-12-22T05:36:15.530Z,18.3
2018-12-22T05:37:15.501Z,33.3
2018-12-22T05:38:15.517Z,15.4
2018-12-22T05:39:15.608Z,6.6
2018-12-22T05:40:15.536Z,12.4
2018-12-22T05:41:15.506Z,24.3
2018-12-22T05:42:15.467Z,12.4
2018-12-22T05:43:15.473Z,24.3
2018-12-22T05:44:15.552Z,12.4
2018-12-22T05:45:15.598Z,21.3
2018-12-22T05:46:15.536Z,18.3
2018-12-22T05:47:15.611Z,18.3
2018-12-22T05:48:15.493Z,24.3
2018-12-22T05:49:15.536Z,21.3
2018-12-22T05:50:15.587Z,21.3
2018-12-22T05:51:15.557Z,9.5
2018-12-22T05:52:15.534Z,24.3
2018-12-22T05:53:15.517Z,24.3
2018-12-22T05:54:15.503Z,9.5
2018-12-22T05:55:15.586Z,27.3
2018-12-22T05:56:15.504Z,9.5
2018-12-22T05:57:15.538Z,9.5
2018-12-22T05:58:15.598Z,18.3
2018-12-22T05:59:15.586Z,9.5
2018-12-22T06:00:15.533Z,12.4
2018-12-22T06:01:15.539Z,18.3
2018-12-22T06:02:15.493Z,18.3
2018-12-22T06:03:15.607Z,15.4
2018-12-22T06:04:15.571Z,12.4
2018-12-22T06:05:16.771Z,3.9
2018-12-22T06:06:19.085Z,9.5
2018-12-22T06:07:15.733Z,24.3
2018-12-22T06:08:15.694Z,12.4
2018-12-22T06:09:19.486Z,9.5
2018-12-22T06:10:15.590Z,15.4
2018-12-22T06:11:15.896Z,18.3
2018-12-22T06:12:15.686Z,6.6
2018-12-22T06:13:18.774Z,9.5
2018-12-22T06:14:16.742Z,12.4
2018-12-22T06:15:16.218Z,9.5
2018-12-22T06:16:15.702Z,15.4
2018-12-22T06:17:17.078Z,18.3
2018-12-22T06:18:15.549Z,30.3
2018-12-22T06:19:19.388Z,6.6
2018-12-22T06:20:15.865Z,15.4
2018-12-22T06:21:15.614Z,21.3
2018-12-22T06:22:15.770Z,9.5
2018-12-22T06:23:15.655Z,21.3
2018-12-22T06:24:15.632Z,6.6
2018-12-22T06:25:15.607Z,15.4
2018-12-22T06:26:15.552Z,24.3
2018-12-22T06:27:15.667Z,24.3
2018-12-22T06:28:18.290Z,12.4
2018-12-22T06:29:17.407Z,21.3
2018-12-22T06:30:15.697Z,24.3
2018-12-22T06:31:15.552Z,12.4
2018-12-22T06:32:15.597Z,9.5
2018-12-22T06:33:15.477Z,21.3
2018-12-22T06:34:15.440Z,33.3
2018-12-22T06:35:15.618Z,36.3
2018-12-22T06:36:15.462Z,18.3
2018-12-22T06:37:15.617Z,9.5
2018-12-22T06:38:17.093Z,18.3
2018-12-22T06:39:15.672Z,15.4
2018-12-22T06:40:15.621Z,12.4
2018-12-22T06:41:15.787Z,21.3
2018-12-22T06:42:15.655Z,18.3
2018-12-22T06:43:15.687Z,21.3
2018-12-22T06:44:15.746Z,9.5
2018-12-22T06:45:15.742Z,12.4
2018-12-22T06:46:15.737Z,18.3
2018-12-22T06:47:15.842Z,18.3
2018-12-22T06:48:15.680Z,21.3
2018-12-22T06:49:15.608Z,36.3
2018-12-22T06:50:15.919Z,18.3
2018-12-22T06:51:15.760Z,24.3
2018-12-22T06:52:16.141Z,18.3
2018-12-22T06:53:15.607Z,33.3
2018-12-22T06:54:15.553Z,21.3
2018-12-22T06:55:15.674Z,12.4
2018-12-22T06:56:15.724Z,3.9
2018-12-22T06:57:15.890Z,15.4
2018-12-22T06:58:15.715Z,18.3
2018-12-22T06:59:17.414Z,24.3
2018-12-22T07:00:20.396Z,24.3
2018-12-22T07:01:15.647Z,27.3
2018-12-22T07:02:15.790Z,33.3
2018-12-22T07:03:15.617Z,51.3
2018-12-22T07:04:15.579Z,27.3
2018-12-22T07:05:15.655Z,24.3
2018-12-22T07:06:15.622Z,15.4
2018-12-22T07:07:15.762Z,27.3
2018-12-22T07:08:15.696Z,24.3
2018-12-22T07:09:21.059Z,39.3
2018-12-22T07:10:15.612Z,30.3
2018-12-22T07:11:15.857Z,24.3
2018-12-22T07:12:15.653Z,27.3
2018-12-22T07:13:15.636Z,18.3
2018-12-22T07:14:15.706Z,18.3
2018-12-22T07:15:15.645Z,18.3
2018-12-22T07:16:15.732Z,12.4
2018-12-22T07:17:15.675Z,9.5
2018-12-22T07:18:15.702Z,33.3
2018-12-22T07:19:15.748Z,36.3
2018-12-22T07:20:15.538Z,15.4
2018-12-22T07:21:15.637Z,33.3
2018-12-22T07:22:15.587Z,27.3
2018-12-22T07:23:15.645Z,33.3
2018-12-22T07:24:15.748Z,39.3
2018-12-22T07:25:15.462Z,36.3
2018-12-22T07:26:15.484Z,42.3
2018-12-22T07:27:15.490Z,33.3
2018-12-22T07:28:15.493Z,33.3
2018-12-22T07:29:15.530Z,39.3
2018-12-22T07:30:15.987Z,51.3
2018-12-22T07:31:15.563Z,27.3
2018-12-22T07:32:15.439Z,12.4
2018-12-22T07:33:15.502Z,36.3
2018-12-22T07:34:15.427Z,51.3
2018-12-22T07:35:17.891Z,30.3
2018-12-22T07:36:15.555Z,54.3
2018-12-22T07:37:15.418Z,42.3
2018-12-22T07:38:15.465Z,30.3
2018-12-22T07:39:15.566Z,24.3
2018-12-22T07:40:15.539Z,27.3
2018-12-22T07:41:15.524Z,24.3
2018-12-22T07:42:15.461Z,63.4
2018-12-22T07:43:15.493Z,39.3
2018-12-22T07:44:15.467Z,27.3
2018-12-22T07:45:15.484Z,42.3
2018-12-22T07:46:15.509Z,21.3
2018-12-22T07:47:15.475Z,18.3
2018-12-22T07:48:15.417Z,72.4
2018-12-22T07:49:15.485Z,60.3
2018-12-22T07:50:15.546Z,30.3
2018-12-22T07:51:15.468Z,12.4
2018-12-22T07:52:15.470Z,33.3
2018-12-22T07:53:15.412Z,18.3
2018-12-22T07:54:15.428Z,18.3
2018-12-22T07:55:15.579Z,24.3
2018-12-22T07:56:15.474Z,30.3
2018-12-22T07:57:15.468Z,36.3
2018-12-22T07:58:15.458Z,48.3
2018-12-22T07:59:15.474Z,66.4
2018-12-22T08:00:15.471Z,33.3
2018-12-22T08:01:15.526Z,15.4
2018-12-22T08:02:15.462Z,24.3
2018-12-22T08:03:16.301Z,9.5
2018-12-22T08:04:15.513Z,15.4
2018-12-22T08:05:15.504Z,12.4
2018-12-22T08:06:15.436Z,36.3
2018-12-22T08:07:15.462Z,30.3
2018-12-22T08:08:15.522Z,18.3
2018-12-22T08:09:15.549Z,24.3
2018-12-22T08:10:15.403Z,33.3
2018-12-22T08:11:15.534Z,18.3
2018-12-22T08:12:15.445Z,66.4
2018-12-22T08:13:15.430Z,24.3
2018-12-22T08:14:15.523Z,33.3
2018-12-22T08:15:15.438Z,15.4
2018-12-22T08:16:15.495Z,15.4
2018-12-22T08:17:15.474Z,33.3
2018-12-22T08:18:15.459Z,21.3
2018-12-22T08:19:15.611Z,21.3
2018-12-22T08:20:15.414Z,36.3
2018-12-22T08:21:15.511Z,51.3
2018-12-22T08:22:15.474Z,30.3
2018-12-22T08:23:15.522Z,30.3
2018-12-22T08:24:15.484Z,33.3
2018-12-22T08:25:15.486Z,51.3
2018-12-22T08:26:15.490Z,33.3
2018-12-22T08:27:15.465Z,18.3
2018-12-22T08:28:15.444Z,69.4
2018-12-22T08:29:15.460Z,42.3
2018-12-22T08:30:15.427Z,33.3
2018-12-22T08:31:15.617Z,27.3
2018-12-22T08:32:15.482Z,27.3
2018-12-22T08:33:15.469Z,42.3
2018-12-22T08:34:15.453Z,39.3
2018-12-22T08:35:15.588Z,51.3
2018-12-22T08:36:15.548Z,42.3
2018-12-22T08:37:15.441Z,33.3
2018-12-22T08:38:15.517Z,81.4
2018-12-22T08:39:15.453Z,48.3
2018-12-22T08:40:15.451Z,57.3
2018-12-22T08:41:15.466Z,15.4
2018-12-22T08:42:15.441Z,57.3
2018-12-22T08:43:15.482Z,15.4
2018-12-22T08:44:15.450Z,39.3
2018-12-22T08:45:15.569Z,21.3
2018-12-22T08:46:15.500Z,48.3
2018-12-22T08:47:15.450Z,54.3
2018-12-22T08:48:15.523Z,51.3
2018-12-22T08:49:18.437Z,21.3
2018-12-22T08:50:15.433Z,60.3
2018-12-22T08:51:15.514Z,21.3
2018-12-22T08:52:15.529Z,48.3
2018-12-22T08:53:15.479Z,24.3
2018-12-22T08:54:15.428Z,81.4
2018-12-22T08:55:15.464Z,57.3
2018-12-22T08:56:15.533Z,51.3
2018-12-22T08:57:15.450Z,33.3
2018-12-22T08:58:18.447Z,21.3
2018-12-22T08:59:15.402Z,33.3
2018-12-22T09:00:15.468Z,42.3
2018-12-22T09:01:15.495Z,45.3
2018-12-22T09:02:15.469Z,27.3
2018-12-22T09:03:15.563Z,30.3
2018-12-22T09:04:15.394Z,15.4
2018-12-22T09:05:15.425Z,24.3
2018-12-22T09:06:15.444Z,18.3
2018-12-22T09:07:15.469Z,30.3
2018-12-22T09:08:15.502Z,36.3
2018-12-22T09:09:15.391Z,18.3
2018-12-22T09:10:15.434Z,36.3
2018-12-22T09:11:15.429Z,33.3
2018-12-22T09:12:15.584Z,54.3
2018-12-22T09:13:23.174Z,18.3
2018-12-22T09:14:15.438Z,27.3
2018-12-22T09:15:16.611Z,36.3
2018-12-22T09:16:15.441Z,27.3
2018-12-22T09:17:15.522Z,27.3
2018-12-22T09:18:15.439Z,21.3
2018-12-22T09:19:15.433Z,21.3
2018-12-22T09:20:15.425Z,9.5
2018-12-22T09:21:15.512Z,33.3
2018-12-22T09:22:15.459Z,12.4
2018-12-22T09:23:15.442Z,45.3
2018-12-22T09:24:15.559Z,12.4
2018-12-22T09:25:15.488Z,24.3
2018-12-22T09:26:15.470Z,27.3
2018-12-22T09:27:15.379Z,15.4
2018-12-22T09:28:15.458Z,30.3
2018-12-22T09:29:15.410Z,18.3
2018-12-22T09:30:15.472Z,18.3
2018-12-22T09:31:15.478Z,36.3
2018-12-22T09:32:15.458Z,12.4
2018-12-22T09:33:15.449Z,12.4
2018-12-22T09:34:16.084Z,21.3
2018-12-22T09:35:15.485Z,45.3
2018-12-22T09:36:15.470Z,63.4
2018-12-22T09:37:15.400Z,21.3
2018-12-22T09:38:15.458Z,66.4
2018-12-22T09:39:15.481Z,39.3
2018-12-22T09:40:15.427Z,63.4
2018-12-22T09:41:15.526Z,18.3
2018-12-22T09:42:15.418Z,15.4
2018-12-22T09:43:15.404Z,36.3
2018-12-22T09:44:15.416Z,27.3
2018-12-22T09:45:15.509Z,33.3
2018-12-22T09:46:15.446Z,21.3
2018-12-22T09:47:15.489Z,9.5
2018-12-22T09:48:15.409Z,15.4
2018-12-22T09:49:15.481Z,12.4
2018-12-22T09:50:15.499Z,24.3
2018-12-22T09:51:15.458Z,30.3
2018-12-22T09:52:15.479Z,12.4
2018-12-22T09:53:15.410Z,30.3
2018-12-22T09:54:15.447Z,15.4
2018-12-22T09:55:15.442Z,60.3
2018-12-22T09:56:15.503Z,18.3
2018-12-22T09:57:15.469Z,27.3
2018-12-22T09:58:15.416Z,39.3
2018-12-22T09:59:15.497Z,45.3
2018-12-22T10:00:15.434Z,48.3
2018-12-22T10:01:15.460Z,45.3
2018-12-22T10:02:15.422Z,114.5
2018-12-22T10:03:15.423Z,123.6
2018-12-22T10:04:15.452Z,81.4
2018-12-22T10:05:15.499Z,102.5
2018-12-22T10:06:15.451Z,99.5
2018-12-22T10:07:15.422Z,93.5
2018-12-22T10:08:15.429Z,111.5
2018-12-22T10:09:15.501Z,81.4
2018-12-22T10:10:15.429Z,81.4
2018-12-22T10:11:15.516Z,102.5
2018-12-22T10:12:15.434Z,66.4
2018-12-22T10:13:15.422Z,69.4
2018-12-22T10:14:15.467Z,69.4
2018-12-22T10:15:15.355Z,69.4
2018-12-22T10:16:15.491Z,63.4
2018-12-22T10:17:15.491Z,45.3
2018-12-22T10:18:15.444Z,63.4
2018-12-22T10:19:15.426Z,60.3
2018-12-22T10:20:15.368Z,45.3
2018-12-22T10:21:15.433Z,78.4
2018-12-22T10:22:17.079Z,60.3
2018-12-22T10:23:15.494Z,54.3
2018-12-22T10:24:15.443Z,51.3
2018-12-22T10:25:15.471Z,60.3
2018-12-22T10:26:15.393Z,51.3
2018-12-22T10:27:15.437Z,66.4
2018-12-22T10:28:15.481Z,63.4
2018-12-22T10:29:15.455Z,48.3
2018-12-22T10:30:15.426Z,51.3
2018-12-22T10:31:20.483Z,45.3
2018-12-22T10:32:15.433Z,54.3
2018-12-22T10:33:15.501Z,42.3
2018-12-22T10:34:15.791Z,42.3
2018-12-22T10:35:15.425Z,45.3
2018-12-22T10:36:16.140Z,36.3
2018-12-22T10:37:15.378Z,54.3
2018-12-22T10:38:15.493Z,54.3
2018-12-22T10:39:15.497Z,39.3
2018-12-22T10:40:15.434Z,36.3
2018-12-22T10:41:15.428Z,36.3
2018-12-22T10:42:15.357Z,45.3
2018-12-22T10:43:15.501Z,45.3
2018-12-22T10:44:15.409Z,45.3
2018-12-22T10:45:15.434Z,36.3
2018-12-22T10:46:15.421Z,48.3
2018-12-22T10:47:15.493Z,36.3
2018-12-22T10:48:15.485Z,39.3
2018-12-22T10:49:15.403Z,51.3
2018-12-22T10:50:15.616Z,48.3
2018-12-22T10:51:24.026Z,36.3
2018-12-22T10:52:15.498Z,48.3
2018-12-22T10:53:15.395Z,42.3
2018-12-22T10:54:15.432Z,33.3
2018-12-22T10:55:15.474Z,27.3
2018-12-22T10:56:15.411Z,45.3
2018-12-22T10:57:15.459Z,36.3
2018-12-22T10:58:15.392Z,45.3
2018-12-22T10:59:15.364Z,39.3
2018-12-22T11:00:15.468Z,30.3
2018-12-22T11:01:15.607Z,36.3
2018-12-22T11:02:15.464Z,30.3
2018-12-22T11:03:15.507Z,24.3
2018-12-22T11:04:15.371Z,27.3
2018-12-22T11:05:15.453Z,24.3
2018-12-22T11:06:15.412Z,27.3
2018-12-22T11:07:15.411Z,39.3
2018-12-22T11:08:15.406Z,21.3
2018-12-22T11:09:15.383Z,30.3
2018-12-22T11:10:15.354Z,36.3
2018-12-22T11:11:15.510Z,33.3
2018-12-22T11:12:15.440Z,99.5
2018-12-22T11:13:15.545Z,57.3
2018-12-22T11:14:15.556Z,78.4
2018-12-22T11:15:15.477Z,60.3
2018-12-22T11:16:15.646Z,39.3
2018-12-22T11:17:15.507Z,51.3
2018-12-22T11:18:15.419Z,63.4
2018-12-22T11:19:15.399Z,45.3
2018-12-22T11:20:15.388Z,66.4
2018-12-22T11:21:15.359Z,63.4
2018-12-22T11:22:15.465Z,81.4
2018-12-22T11:23:22.824Z,60.3
2018-12-22T11:24:15.472Z,57.3
2018-12-22T11:25:15.426Z,69.4
2018-12-22T11:26:15.367Z,66.4
2018-12-22T11:27:15.412Z,63.4
2018-12-22T11:28:15.400Z,69.4
2018-12-22T11:29:15.620Z,57.3
2018-12-22T11:30:15.417Z,69.4
2018-12-22T11:31:15.397Z,69.4
2018-12-22T11:32:15.468Z,81.4
2018-12-22T11:33:15.458Z,81.4
2018-12-22T11:34:15.420Z,87.4
2018-12-22T11:35:15.432Z,75.4
2018-12-22T11:36:21.361Z,69.4
2018-12-22T11:37:15.372Z,78.4
2018-12-22T11:38:15.453Z,63.4
2018-12-22T11:39:15.413Z,93.5
2018-12-22T11:40:15.452Z,69.4
2018-12-22T11:41:15.391Z,69.4
2018-12-22T11:42:16.700Z,93.5
2018-12-22T11:43:15.424Z,81.4
2018-12-22T11:44:15.392Z,48.3
2018-12-22T11:45:15.465Z,63.4
2018-12-22T11:46:15.388Z,75.4
2018-12-22T11:47:15.391Z,54.3
2018-12-22T11:48:15.438Z,72.4
2018-12-22T11:49:15.388Z,81.4
2018-12-22T11:50:15.450Z,72.4
2018-12-22T11:51:15.369Z,93.5
2018-12-22T11:52:15.347Z,75.4
2018-12-22T11:53:15.351Z,78.4
2018-12-22T11:54:15.405Z,66.4
2018-12-22T11:55:15.443Z,57.3
2018-12-22T11:56:15.377Z,54.3
2018-12-22T11:57:15.402Z,48.3
2018-12-22T11:58:15.420Z,60.3
2018-12-22T11:59:15.426Z,72.4
2018-12-22T12:00:15.522Z,81.4
2018-12-22T12:01:15.419Z,84.4
2018-12-22T12:02:15.505Z,78.4
2018-12-22T12:03:15.378Z,75.4
2018-12-22T12:04:15.455Z,75.4
2018-12-22T12:05:15.421Z,90.4
2018-12-22T12:06:15.379Z,54.3
2018-12-22T12:07:15.419Z,84.4
2018-12-22T12:08:15.454Z,75.4
2018-12-22T12:09:15.355Z,54.3
2018-12-22T12:10:15.390Z,60.3
2018-12-22T12:11:15.529Z,51.3
2018-12-22T12:12:15.464Z,54.3
2018-12-22T12:13:15.403Z,54.3
2018-12-22T12:14:15.368Z,60.3
2018-12-22T12:15:15.322Z,54.3
2018-12-22T12:16:15.402Z,63.4
2018-12-22T12:17:15.415Z,63.4
2018-12-22T12:18:15.428Z,63.4
2018-12-22T12:19:15.860Z,60.3
2018-12-22T12:20:15.447Z,60.3
2018-12-22T12:21:15.367Z,66.4
2018-12-22T12:22:15.472Z,60.3
2018-12-22T12:23:15.376Z,63.4
2018-12-22T12:24:15.380Z,66.4
2018-12-22T12:25:15.392Z,63.4
2018-12-22T12:26:15.316Z,69.4
2018-12-22T12:27:15.432Z,69.4
2018-12-22T12:28:15.410Z,75.4
2018-12-22T12:29:15.355Z,66.4
2018-12-22T12:30:15.457Z,45.3
2018-12-22T12:31:15.347Z,54.3
2018-12-22T12:32:15.389Z,54.3
2018-12-22T12:33:15.407Z,75.4
2018-12-22T12:34:15.384Z,51.3
2018-12-22T12:35:15.388Z,60.3
2018-12-22T12:36:15.354Z,81.4
2018-12-22T12:37:15.349Z,66.4
2018-12-22T12:38:15.483Z,75.4
2018-12-22T12:39:15.358Z,57.3
2018-12-22T12:40:15.394Z,63.4
2018-12-22T12:41:15.383Z,60.3
2018-12-22T12:42:15.399Z,42.3
2018-12-22T12:43:15.386Z,54.3
2018-12-22T12:44:15.378Z,57.3
2018-12-22T12:45:15.457Z,51.3
2018-12-22T12:46:15.383Z,57.3
2018-12-22T12:47:15.352Z,60.3
2018-12-22T12:48:15.320Z,54.3
2018-12-22T12:49:15.458Z,54.3
2018-12-22T12:50:15.389Z,63.4
2018-12-22T12:51:15.413Z,81.4
2018-12-22T12:52:15.480Z,54.3
2018-12-22T12:53:15.318Z,69.4
2018-12-22T12:54:15.417Z,39.3
2018-12-22T12:55:15.447Z,63.4
2018-12-22T12:56:15.437Z,69.4
2018-12-22T12:57:15.377Z,51.3
2018-12-22T12:58:15.325Z,60.3
2018-12-22T12:59:15.388Z,39.3
2018-12-22T13:00:15.439Z,51.3
2018-12-22T13:01:15.443Z,63.4
2018-12-22T13:02:15.395Z,45.3
2018-12-22T13:03:15.368Z,51.3
2018-12-22T13:04:15.337Z,57.3
2018-12-22T13:05:15.451Z,57.3
2018-12-22T13:06:15.381Z,60.3
2018-12-22T13:07:15.467Z,57.3
2018-12-22T13:08:15.361Z,48.3
2018-12-22T13:09:18.222Z,42.3
2018-12-22T13:10:15.326Z,60.3
2018-12-22T13:11:15.459Z,66.4
2018-12-22T13:12:15.425Z,39.3
2018-12-22T13:13:15.584Z,75.4
2018-12-22T13:14:15.343Z,51.3
2018-12-22T13:15:15.362Z,54.3
2018-12-22T13:16:15.360Z,51.3
2018-12-22T13:17:15.377Z,54.3
2018-12-22T13:18:15.399Z,54.3
2018-12-22T13:19:15.448Z,39.3